Rechercher aéroport 
image banner adimage banner ad
image banner ad

SVMC - Maracaibo / La Chinita Intl

Situé à Maracaibo, Venezuela

ICAO - SVMC, IATA - MAR

Données fournies par Airmate  

Information générale

Coordonnées: N10°33'30" W71°43'44"
Élévation : 240 feet MSL.
 
Voir autres Aéroports à Zulia

Données opérationnelles

Accessible au public
Heure actuelle UTC:
Heure actuelle locale:
Météo
TAF: TAF SVMC 230400Z 2306/2406 12005KT 9999 BKN016 TX33/2319Z TN23/2307Z BECMG 2306/2310 18005KT 9000 DZ BKN016
Voir NOTAMs / SUP AIP / TFR affectant cet aéroport [VIEW]
Fréquences de communication: [VIEW]

Pistes:

Identifiant RWYQFULongueur (ft)Largeur (ft)SurfaceLDA (ft)
03L23°9843148
21R203°9843148
03R23°820298CONCRETE
21L203°820298

Coordonnées de l'aéroport

Adresse: Maracaibo Venezuela

Vue satellite de SVMC